Etusivu
METAR-TAF:

METAR-TAF

Lentoasemat :

Jyväskylä, Suomi

Jyväskylän lentoasema

Leveyspiiri: 62-24N, Pituuspiiri: 025-41E, korkeus merenpinnasta: 141 m

Tämänhetkinen sää

Tämä raportti tehtiin 33 minuuttia sitten, kello 20.20 UTC
Tuuli 4 kn pohjoisen/luoteesta
Lämpötila 6°C
Kosteus 49%
Ilmanpaine 1018 hPa
Näkyvyys 10 km tai enemmän
ei pilviä alle 1500 m:ssä eikä cumulonimbus-pilviä

METAR: EFJY 262020Z AUTO 33004KT CAVOK 06/M04 Q1018

Aika: 23:53 (20:53 UTC)

Sääennuste

Tämä raportti tehtiin 23 minuuttia sitten, kello 20.30 UTC
Ennuste voimassa 26. päivästä klo 21 UTC - 27. päivään klo 21 UTC
Tuuli 6 kn pohjoisen/luoteesta
Näkyvyys 10 km tai enemmän
ei pilviä alle 1500 m:ssä eikä cumulonimbus-pilviä
Todennäköisyys 30%
27. päivästä klo 11 UTC - 27. päivään klo 14 UTC
sadetta

TAF: EFJY 262030Z 2621/2721 34006KT CAVOK PROB30 2711/2714 RA

Säähavainnot ja -ennusteet yli 4000 lentoasemalta (METAR- ja TAF-raportit).

Käytössä olevat sääasemat on merkitty karttaan keltaisilla ja punaisilla pisteillä.

Aseta hiiri pisteen päälle nähdäksesi sääaseman nimen.

Klikkaa sitten nähdäksesi säähavainnot ja -ennusteet.

Kartan vaihtaminen: klikkaa mustalla rastilla varustettuja vihreitä pisteitä, niin voit zoomata sisään; viivalla varustettua vihreää pistettä, niin voit zoomata ulos tai vihreitä nuolia, niin pääset viereisille kartoille.


METAR-TAF: